Time;durP1;ratioP1;P1;durP2;ratioP2;P2;SDS_P1;SDS_P2;PMS_P1;PMS_P2;Temp;Humidity;BMP_temperature;BMP_pressure;BME280_temperature;BME280_humidity;BME280_pressure;Samples;Min_cycle;Max_cycle;Signal;HPM_P1;HPM_P2
2022/03/05 00:00:44;;;;;;;16.73;6.80;;;;;;;0.14;61.44;99017.88;5038896;28;20052;-70
2022/03/05 00:03:11;;;;;;;12.23;5.95;;;;;;;0.31;61.58;99046.50;5038588;28;20029;-69
2022/03/05 00:05:37;;;;;;;13.13;5.47;;;;;;;0.40;61.66;99045.72;5035077;28;20026;-70
2022/03/05 00:08:03;;;;;;;18.70;6.55;;;;;;;0.14;61.69;99023.19;5007967;28;20018;-71
2022/03/05 00:10:28;;;;;;;10.05;5.13;;;;;;;0.24;61.32;99023.22;5032731;28;20029;-71
2022/03/05 00:12:54;;;;;;;15.88;6.20;;;;;;;0.32;61.89;99044.72;5041130;28;20048;-70
2022/03/05 00:15:20;;;;;;;15.45;6.15;;;;;;;0.12;61.96;99025.97;5031867;28;20105;-70
2022/03/05 00:17:47;;;;;;;17.15;7.03;;;;;;;0.16;62.13;99047.84;5033124;28;20080;-70
2022/03/05 00:20:12;;;;;;;13.65;5.25;;;;;;;0.23;62.70;99051.66;5031463;28;20026;-71
2022/03/05 00:22:38;;;;;;;14.80;7.05;;;;;;;0.19;62.58;99050.25;5009997;28;20094;-70
2022/03/05 00:25:04;;;;;;;15.98;5.78;;;;;;;-0.09;63.06;99025.13;5030025;28;20029;-71
2022/03/05 00:27:30;;;;;;;18.15;6.82;;;;;;;0.14;62.39;99047.13;5032936;28;20018;-70
2022/03/05 00:29:55;;;;;;;13.38;6.10;;;;;;;0.04;62.96;99039.06;5031666;28;20026;-70
2022/03/05 00:32:20;;;;;;;13.75;6.18;;;;;;;-0.02;62.27;99013.84;5032282;28;20033;-70
2022/03/05 00:34:46;;;;;;;12.27;5.65;;;;;;;0.30;61.97;99044.81;5036946;28;20083;-70
2022/03/05 00:37:11;;;;;;;16.15;6.43;;;;;;;0.12;62.15;99025.97;5033491;28;20121;-70
2022/03/05 00:39:37;;;;;;;10.90;5.95;;;;;;;0.24;62.30;99036.53;5015982;28;20366;-70
2022/03/05 00:42:03;;;;;;;11.68;5.50;;;;;;;0.36;61.71;99054.09;5033204;28;20102;-70
2022/03/05 00:44:29;;;;;;;13.25;6.18;;;;;;;-0.08;62.39;99008.19;5026457;28;20055;-70
2022/03/05 00:46:55;;;;;;;12.93;5.70;;;;;;;-0.20;63.34;99049.97;5032815;28;20029;-70
2022/03/05 00:49:20;;;;;;;16.98;6.43;;;;;;;-0.28;64.01;99053.28;5034121;28;20029;-70
2022/03/05 00:51:46;;;;;;;11.63;5.93;;;;;;;-0.01;62.86;99054.59;5033278;28;20029;-70
2022/03/05 00:54:11;;;;;;;12.32;5.90;;;;;;;-0.08;63.20;99056.94;5034591;28;20032;-69
2022/03/05 00:56:36;;;;;;;12.65;5.35;;;;;;;-0.29;63.90;99035.66;5021753;28;20030;-69
2022/03/05 00:59:02;;;;;;;15.75;6.03;;;;;;;-0.37;63.77;99032.78;5029174;28;20033;-70
2022/03/05 01:01:27;;;;;;;15.13;6.28;;;;;;;-0.62;64.80;99014.53;5018258;28;20025;-69
2022/03/05 01:03:52;;;;;;;12.20;5.82;;;;;;;-0.54;64.85;99042.16;5034212;28;20032;-70
2022/03/05 01:06:18;;;;;;;12.90;6.30;;;;;;;-0.51;65.32;99049.03;5034386;28;20392;-69
2022/03/05 01:08:43;;;;;;;15.88;6.13;;;;;;;-0.40;64.89;99050.81;5034717;28;20404;-69
2022/03/05 01:11:09;;;;;;;11.85;5.47;;;;;;;-0.56;65.88;99048.56;5032847;28;20040;-69
2022/03/05 01:13:36;;;;;;;14.68;6.10;;;;;;;-0.55;65.57;99055.56;5034742;28;20033;-70
2022/03/05 01:16:01;;;;;;;11.18;5.72;;;;;;;-0.73;66.42;99048.16;5034656;28;20385;-70
2022/03/05 01:18:26;;;;;;;13.45;6.05;;;;;;;-0.64;66.33;99051.84;5034299;28;20033;-70
2022/03/05 01:20:52;;;;;;;19.10;6.90;;;;;;;-0.85;67.29;99050.97;5034758;28;20056;-70
2022/03/05 01:23:17;;;;;;;14.65;5.93;;;;;;;-0.99;67.28;99044.13;5026285;28;20509;-69
2022/03/05 01:25:43;;;;;;;10.68;5.80;;;;;;;-0.95;67.74;99046.38;5030219;28;20052;-70
2022/03/05 01:28:08;;;;;;;14.40;5.95;;;;;;;-1.17;67.85;99034.00;5034609;28;20036;-69
2022/03/05 01:30:34;;;;;;;16.98;6.05;;;;;;;-0.86;67.75;99050.13;5034428;28;20025;-70
2022/03/05 01:33:00;;;;;;;15.15;6.80;;;;;;;-0.75;67.63;99052.75;5028589;28;20026;-70
2022/03/05 01:35:25;;;;;;;11.63;5.70;;;;;;;-0.71;66.61;99018.78;5030232;28;20040;-69
2022/03/05 01:37:50;;;;;;;11.50;5.63;;;;;;;-0.53;66.16;99019.91;5037706;28;20029;-69
2022/03/05 01:40:16;;;;;;;14.38;6.18;;;;;;;-0.48;66.35;99035.50;5035956;28;20485;-69
2022/03/05 01:42:41;;;;;;;14.45;6.40;;;;;;;-0.76;66.42;99024.50;5035954;28;20072;-69
2022/03/05 01:45:10;;;;;;;15.07;6.30;;;;;;;-0.89;68.11;99043.25;5035017;28;20048;-69
2022/03/05 01:47:39;;;;;;;13.43;6.28;;;;;;;-1.57;68.64;98973.53;5035866;28;20110;-69
2022/03/05 01:50:06;;;;;;;14.05;6.03;;;;;;;-1.31;70.14;99044.91;5036276;28;20029;-69
2022/03/05 01:52:32;;;;;;;12.25;5.82;;;;;;;-1.45;69.36;99015.94;5029018;28;20033;-69
2022/03/05 01:54:57;;;;;;;14.35;6.28;;;;;;;-1.17;68.47;99036.66;5022929;28;20022;-69
2022/03/05 01:57:22;;;;;;;13.10;6.15;;;;;;;-1.16;69.02;99037.50;5034170;28;20040;-69
2022/03/05 01:59:48;;;;;;;12.75;6.43;;;;;;;-1.09;68.54;99045.84;5032191;28;20030;-69
2022/03/05 02:02:14;;;;;;;12.60;6.05;;;;;;;-1.01;68.56;99040.75;5030900;28;20037;-70
2022/03/05 02:04:39;;;;;;;16.20;6.53;;;;;;;-1.05;69.03;99034.81;5028050;28;20030;-70
2022/03/05 02:07:05;;;;;;;19.42;6.43;;;;;;;-1.10;69.74;99037.03;5008051;28;20071;-69
2022/03/05 02:09:30;;;;;;;15.00;6.80;;;;;;;-1.37;70.93;99040.06;5037321;28;20033;-69
2022/03/05 02:11:55;;;;;;;15.98;6.60;;;;;;;-1.46;71.41;99040.81;5034161;28;20021;-70
2022/03/05 02:14:21;;;;;;;14.65;6.53;;;;;;;-1.72;72.06;99041.03;5033326;28;20171;-68
2022/03/05 02:16:46;;;;;;;17.70;7.15;;;;;;;-1.70;72.37;99038.25;5032877;28;20389;-69
2022/03/05 02:19:12;;;;;;;16.23;7.03;;;;;;;-2.03;73.26;99030.16;5033823;28;20032;-69
2022/03/05 02:21:38;;;;;;;17.42;7.72;;;;;;;-1.86;73.76;99043.91;5033139;28;20515;-69
2022/03/05 02:24:03;;;;;;;16.45;6.75;;;;;;;-2.08;73.85;98995.19;5030604;28;20018;-70
2022/03/05 02:26:29;;;;;;;15.38;7.20;;;;;;;-1.92;73.52;99041.72;5030440;28;20028;-70
2022/03/05 02:28:54;;;;;;;16.30;7.40;;;;;;;-1.96;72.09;99008.50;5011146;28;20025;-69
2022/03/05 02:31:21;;;;;;;13.23;6.97;;;;;;;-1.81;73.19;99042.59;5033247;28;20025;-70
2022/03/05 02:33:46;;;;;;;16.80;7.50;;;;;;;-1.87;73.40;99043.06;5033035;28;20037;-70
2022/03/05 02:36:12;;;;;;;18.42;7.25;;;;;;;-1.94;73.84;99035.69;5031700;28;20119;-70
2022/03/05 02:38:37;;;;;;;14.93;6.45;;;;;;;-2.11;74.29;99045.81;5030228;28;20037;-70
2022/03/05 02:41:03;;;;;;;15.13;6.75;;;;;;;-2.03;75.31;99043.41;5029939;28;20029;-70
2022/03/05 02:43:29;;;;;;;14.55;6.75;;;;;;;-2.14;75.95;99039.91;5033640;28;20032;-69
2022/03/05 02:45:54;;;;;;;14.35;7.05;;;;;;;-2.13;76.14;99021.22;5032880;28;20036;-69
2022/03/05 02:48:21;;;;;;;12.60;6.07;;;;;;;-2.00;75.74;99045.81;5031315;28;20036;-69
2022/03/05 02:50:48;;;;;;;15.52;6.47;;;;;;;-2.03;75.78;99040.75;5022267;28;20036;-69
2022/03/05 02:53:14;;;;;;;15.77;6.30;;;;;;;-2.12;75.95;99036.16;5032494;28;20469;-69
2022/03/05 02:55:39;;;;;;;13.50;6.68;;;;;;;-2.14;76.37;99035.44;5032406;28;20064;-69
2022/03/05 02:58:05;;;;;;;17.10;6.85;;;;;;;-2.35;76.48;99018.53;5032909;28;20034;-69
2022/03/05 03:00:31;;;;;;;17.52;6.55;;;;;;;-2.17;77.08;99035.69;5031172;28;20029;-69
2022/03/05 03:02:57;;;;;;;14.70;6.30;;;;;;;-2.22;76.42;99043.13;5011114;28;20021;-69
2022/03/05 03:05:22;;;;;;;20.70;7.22;;;;;;;-2.45;76.13;99011.25;5032497;28;20148;-70
2022/03/05 03:07:48;;;;;;;14.68;5.78;;;;;;;-2.42;76.07;99008.38;5029204;28;20029;-69
2022/03/05 03:10:15;;;;;;;18.80;5.80;;;;;;;-2.55;75.82;99009.41;5029963;28;20528;-69
2022/03/05 03:12:42;;;;;;;21.08;6.57;;;;;;;-2.59;76.05;99011.47;5032829;28;20060;-68
2022/03/05 03:15:09;;;;;;;13.38;5.88;;;;;;;-2.49;76.47;99014.25;5032358;28;20032;-68
2022/03/05 03:17:46;;;;;;;15.82;5.97;;;;;;;-2.39;76.15;99046.19;5032742;28;20029;-68
2022/03/05 03:20:15;;;;;;;11.60;5.50;;;;;;;-2.60;76.62;99038.91;5034428;28;20104;-68
2022/03/05 03:22:41;;;;;;;15.45;6.25;;;;;;;-2.54;76.91;99029.63;5040123;28;20041;-68
2022/03/05 03:25:07;;;;;;;14.68;5.93;;;;;;;-2.51;75.71;99038.22;5031185;28;20064;-69
2022/03/05 03:27:33;;;;;;;19.25;6.38;;;;;;;-2.50;76.30;99031.97;5032305;28;20026;-69
2022/03/05 03:29:58;;;;;;;17.20;5.93;;;;;;;-2.38;76.06;99039.94;5029985;28;20044;-69
2022/03/05 03:32:24;;;;;;;14.25;5.70;;;;;;;-2.45;75.85;99032.47;5032401;28;20037;-68
2022/03/05 03:34:49;;;;;;;15.65;6.35;;;;;;;-2.30;76.50;99045.53;5018195;28;20025;-68
2022/03/05 03:37:15;;;;;;;14.27;6.35;;;;;;;-2.51;76.85;99032.94;5031083;28;20056;-68
2022/03/05 03:39:40;;;;;;;15.25;5.97;;;;;;;-2.68;76.73;99028.88;5018574;28;20481;-68
2022/03/05 03:42:06;;;;;;;15.45;5.95;;;;;;;-2.76;77.24;99036.53;5018222;28;20053;-68
2022/03/05 03:44:31;;;;;;;15.30;6.65;;;;;;;-2.88;78.43;99034.81;5032173;28;20029;-68
2022/03/05 03:46:57;;;;;;;14.63;5.55;;;;;;;-2.85;78.75;99039.88;5035856;28;20063;-69
2022/03/05 03:49:23;;;;;;;13.68;5.78;;;;;;;-2.95;78.25;99038.88;5031500;28;20033;-69
2022/03/05 03:51:48;;;;;;;14.77;6.28;;;;;;;-2.98;78.42;99045.22;5031740;28;20029;-69
2022/03/05 03:54:14;;;;;;;13.48;5.63;;;;;;;-3.28;77.98;99003.28;5031429;28;20033;-69
2022/03/05 03:56:39;;;;;;;13.32;6.40;;;;;;;-3.09;78.61;99043.38;5034293;28;20465;-69
2022/03/05 03:59:05;;;;;;;12.13;5.68;;;;;;;-3.12;77.78;99017.13;5035297;28;20030;-69
2022/03/05 04:01:30;;;;;;;13.90;5.65;;;;;;;-3.13;78.28;99018.06;5030638;28;20043;-68
2022/03/05 04:03:55;;;;;;;12.43;5.63;;;;;;;-2.99;78.30;99048.81;5030819;28;20034;-68
2022/03/05 04:06:21;;;;;;;14.18;5.75;;;;;;;-3.07;79.14;99045.88;5008363;28;20037;-70
2022/03/05 04:08:46;;;;;;;12.32;6.03;;;;;;;-3.14;78.85;99034.91;5011120;28;20056;-69
2022/03/05 04:11:14;;;;;;;12.80;5.85;;;;;;;-3.09;78.55;99042.53;5030492;28;20034;-68
2022/03/05 04:13:39;;;;;;;13.52;5.95;;;;;;;-3.17;79.35;99048.38;5036013;28;20059;-68
2022/03/05 04:16:06;;;;;;;13.38;6.13;;;;;;;-3.17;80.00;99052.78;5044210;28;20416;-69
2022/03/05 04:18:32;;;;;;;13.38;6.05;;;;;;;-3.14;79.42;99055.25;5019285;28;20037;-69
2022/03/05 04:20:58;;;;;;;10.40;4.78;;;;;;;-3.19;79.83;99060.84;5030892;28;20032;-69
2022/03/05 04:23:23;;;;;;;12.27;5.80;;;;;;;-3.32;80.24;99052.94;5030115;28;20309;-69
2022/03/05 04:25:49;;;;;;;11.07;5.65;;;;;;;-3.57;80.18;99024.75;5037065;28;20034;-69
2022/03/05 04:28:14;;;;;;;12.63;5.57;;;;;;;-3.40;80.47;99065.88;5034979;28;20032;-69
2022/03/05 04:30:39;;;;;;;15.82;5.88;;;;;;;-3.56;81.08;99028.25;5035393;28;20570;-70
2022/03/05 04:33:05;;;;;;;19.83;6.35;;;;;;;-3.65;80.47;99031.53;5035026;28;20432;-67
2022/03/05 04:35:30;;;;;;;15.23;5.75;;;;;;;-3.65;81.28;99065.91;5036358;28;20401;-69
2022/03/05 04:37:56;;;;;;;13.45;6.30;;;;;;;-3.65;82.28;99065.91;5007290;28;20068;-69
2022/03/05 04:40:22;;;;;;;16.38;6.13;;;;;;;-3.62;81.29;99057.75;5017369;28;20037;-73
2022/03/05 04:42:47;;;;;;;15.48;5.82;;;;;;;-3.31;79.90;99070.50;5034313;28;20029;-69
2022/03/05 04:45:13;;;;;;;14.38;6.20;;;;;;;-3.40;80.43;99070.34;5007856;28;20573;-69
2022/03/05 04:47:40;;;;;;;13.82;6.47;;;;;;;-3.31;79.70;99070.50;5032834;28;20026;-68
2022/03/05 04:50:06;;;;;;;10.80;5.60;;;;;;;-3.68;80.35;99027.31;5031118;28;20025;-69
2022/03/05 04:52:31;;;;;;;12.27;5.97;;;;;;;-3.82;81.42;99030.09;5036524;28;20400;-69
2022/03/05 04:54:56;;;;;;;16.52;5.93;;;;;;;-3.73;82.33;99069.09;5022154;28;20033;-69
2022/03/05 04:57:22;;;;;;;14.88;5.97;;;;;;;-3.80;83.21;99073.97;5031172;28;20061;-69
2022/03/05 04:59:47;;;;;;;15.43;6.40;;;;;;;-3.78;84.12;99073.84;5014974;28;20101;-68
2022/03/05 05:02:13;;;;;;;17.75;6.65;;;;;;;-3.83;83.71;99074.16;5041473;28;20448;-68
2022/03/05 05:04:38;;;;;;;15.45;6.30;;;;;;;-3.93;83.89;99057.25;5023418;28;20053;-69
2022/03/05 05:07:03;;;;;;;14.55;5.93;;;;;;;-3.80;83.80;99075.75;5030919;28;20048;-69
2022/03/05 05:09:30;;;;;;;13.88;6.13;;;;;;;-3.86;83.90;99063.78;5034042;28;20485;-69
2022/03/05 05:11:55;;;;;;;13.63;5.28;;;;;;;-3.93;84.25;99062.56;5039345;28;20026;-77
2022/03/05 05:14:21;;;;;;;16.08;6.70;;;;;;;-3.94;83.90;99049.44;5034709;28;20063;-77
2022/03/05 05:16:46;;;;;;;13.60;5.93;;;;;;;-3.79;84.03;99086.22;5038514;28;20043;-74
2022/03/05 05:19:29;;;;;;;11.15;4.90;;;;;;;-3.98;84.05;99054.94;5019715;28;20370;-75
2022/03/05 05:22:12;;;;;;;14.07;5.75;;;;;;;-3.86;84.63;99076.16;5017725;28;20444;-79
2022/03/05 05:24:38;;;;;;;14.63;5.88;;;;;;;-4.26;84.32;99033.97;5023877;28;20048;-81
2022/03/05 05:27:05;;;;;;;13.13;5.93;;;;;;;-4.11;84.43;99075.22;5020838;28;20120;-74
2022/03/05 05:29:30;;;;;;;16.73;5.82;;;;;;;-4.04;85.48;99075.63;5016746;28;20044;-74
2022/03/05 05:31:55;;;;;;;15.13;6.05;;;;;;;-4.04;85.36;99097.59;5058914;28;20025;-74
2022/03/05 05:34:21;;;;;;;12.27;5.45;;;;;;;-4.09;84.82;99088.31;5070295;28;20040;-75
2022/03/05 05:36:47;;;;;;;17.73;6.15;;;;;;;-4.34;85.24;99063.56;5065058;28;20033;-75
2022/03/05 05:39:13;;;;;;;15.50;5.97;;;;;;;-4.12;86.11;99109.66;5062738;28;20037;-76
2022/03/05 05:41:40;;;;;;;14.13;6.07;;;;;;;-4.15;86.32;99094.84;5030341;28;20032;-74
2022/03/05 05:44:07;;;;;;;13.57;5.72;;;;;;;-4.23;85.66;99068.94;5063788;28;20009;-74
2022/03/05 05:46:33;;;;;;;19.52;6.68;;;;;;;-4.27;85.31;99062.19;5058273;28;20018;-74
2022/03/05 05:48:58;;;;;;;15.55;6.43;;;;;;;-4.07;84.99;99107.56;5058163;28;20064;-75
2022/03/05 05:51:28;;;;;;;17.85;6.63;;;;;;;-4.20;85.41;99079.31;5059205;28;20047;-74
2022/03/05 05:53:55;;;;;;;14.43;6.20;;;;;;;-4.10;85.53;99113.88;5049821;28;20061;-74
2022/03/05 05:56:20;;;;;;;16.15;5.97;;;;;;;-4.33;85.26;99089.00;5036003;28;20104;-74
2022/03/05 05:58:47;;;;;;;14.73;6.45;;;;;;;-4.30;85.57;99091.44;5035705;28;20074;-74
2022/03/05 06:01:12;;;;;;;19.27;6.88;;;;;;;-4.20;85.29;99100.44;5035160;28;20022;-73
2022/03/05 06:03:37;;;;;;;12.77;5.72;;;;;;;-4.33;84.73;99065.22;5015966;28;20053;-73
2022/03/05 06:06:03;;;;;;;13.70;6.05;;;;;;;-4.01;84.55;99112.41;5016992;28;20075;-75
2022/03/05 06:08:28;;;;;;;11.80;5.65;;;;;;;-3.97;84.72;99114.75;5030518;28;20029;-70
2022/03/05 06:10:55;;;;;;;18.23;7.20;;;;;;;-3.98;84.87;99134.22;5050155;28;20033;-70
2022/03/05 06:13:21;;;;;;;13.82;6.13;;;;;;;-4.07;84.84;99107.56;5013809;28;20079;-73
2022/03/05 06:15:46;;;;;;;14.55;6.28;;;;;;;-3.95;84.33;99111.19;5013687;28;20029;-72
2022/03/05 06:18:12;;;;;;;17.05;6.68;;;;;;;-3.88;83.49;99104.50;5030443;28;20030;-74
2022/03/05 06:20:37;;;;;;;19.02;6.35;;;;;;;-3.74;83.77;99122.94;5036679;28;20033;-74
2022/03/05 06:23:03;;;;;;;18.48;6.38;;;;;;;-3.60;83.29;99114.88;5011606;28;20030;-73
2022/03/05 06:25:28;;;;;;;15.38;6.32;;;;;;;-3.13;82.03;99107.19;5015380;28;20029;-73
2022/03/05 06:27:54;;;;;;;15.20;6.32;;;;;;;-1.37;74.67;99135.59;5030769;28;20032;-69
2022/03/05 06:30:19;;;;;;;13.55;6.47;;;;;;;0.62;67.12;99113.91;5053666;28;20489;-70
2022/03/05 06:32:45;;;;;;;13.88;6.25;;;;;;;1.81;60.67;99095.41;5041773;28;20488;-70
2022/03/05 06:35:10;;;;;;;14.70;6.15;;;;;;;3.11;56.52;99128.56;5039374;28;20103;-72
2022/03/05 06:37:35;;;;;;;14.02;6.45;;;;;;;4.16;52.67;99128.00;5047052;28;20033;-80
2022/03/05 06:40:02;;;;;;;14.10;6.65;;;;;;;5.23;49.25;99132.22;5028166;28;20155;-70
2022/03/05 06:42:27;;;;;;;13.70;6.43;;;;;;;4.79;47.49;99076.06;5029769;28;20029;-77
2022/03/05 06:44:53;;;;;;;12.55;6.53;;;;;;;5.69;47.47;99118.47;5026178;28;20048;-76
2022/03/05 06:47:18;;;;;;;13.50;7.00;;;;;;;5.53;46.78;99116.59;5021055;28;20025;-77
2022/03/05 06:49:43;;;;;;;11.05;6.43;;;;;;;6.36;45.19;99100.41;5030218;28;20120;-69
2022/03/05 06:52:10;;;;;;;11.05;6.60;;;;;;;7.12;43.34;99138.56;5024111;28;20108;-73
2022/03/05 06:54:36;;;;;;;15.02;7.35;;;;;;;7.86;41.29;99114.84;5034102;28;20021;-79
2022/03/05 06:57:02;;;;;;;15.13;7.55;;;;;;;7.88;41.00;99122.75;5019830;28;20075;-77
2022/03/05 06:59:27;;;;;;;14.48;7.10;;;;;;;7.66;40.00;99113.63;5014416;28;20116;-79
2022/03/05 07:01:53;;;;;;;13.02;7.30;;;;;;;8.56;39.60;99121.91;5016983;28;20026;-68
2022/03/05 07:04:18;;;;;;;17.95;8.20;;;;;;;6.75;44.84;99142.69;5027624;28;20043;-68
2022/03/05 07:06:44;;;;;;;14.50;7.38;;;;;;;8.17;41.03;99110.41;5031737;28;20052;-68
2022/03/05 07:09:09;;;;;;;16.60;8.18;;;;;;;9.20;39.97;99139.50;5033737;28;20037;-66
2022/03/05 07:11:34;;;;;;;16.38;8.40;;;;;;;8.95;39.00;99110.06;5025988;28;20036;-66
2022/03/05 07:13:59;;;;;;;18.77;7.95;;;;;;;8.78;41.00;99141.78;5032596;28;20108;-67
2022/03/05 07:16:25;;;;;;;15.35;7.95;;;;;;;10.25;37.83;99116.59;5030464;28;20150;-66
2022/03/05 07:18:50;;;;;;;15.20;8.30;;;;;;;10.61;36.95;99121.97;5012206;28;20513;-66
2022/03/05 07:21:16;;;;;;;20.77;10.30;;;;;;;9.76;37.27;99130.84;5029501;28;20393;-66
2022/03/05 07:23:41;;;;;;;20.70;9.98;;;;;;;12.16;34.81;99136.94;5011557;28;20044;-67
2022/03/05 07:26:06;;;;;;;18.80;9.43;;;;;;;12.65;32.63;99140.31;5029867;28;20029;-67
2022/03/05 07:28:32;;;;;;;15.35;8.63;;;;;;;12.56;32.83;99081.88;5011410;28;20063;-67
2022/03/05 07:30:57;;;;;;;17.17;10.05;;;;;;;12.58;32.30;99112.38;5027159;28;20487;-68
2022/03/05 07:33:23;;;;;;;18.00;11.05;;;;;;;13.74;32.29;99139.72;5029602;28;20048;-68
2022/03/05 07:35:48;;;;;;;17.98;9.85;;;;;;;13.44;31.40;99127.72;5026251;28;20026;-67
2022/03/05 07:38:14;;;;;;;19.42;9.95;;;;;;;12.35;32.09;99140.72;5028745;28;20032;-68
2022/03/05 07:40:39;;;;;;;16.25;9.10;;;;;;;11.81;32.83;99130.75;5026720;28;20151;-67
2022/03/05 07:43:04;;;;;;;17.55;9.00;;;;;;;12.19;32.65;99138.41;5026287;28;20117;-68
2022/03/05 07:45:30;;;;;;;16.13;9.70;;;;;;;11.50;33.76;99129.41;5027185;28;20115;-77
2022/03/05 07:47:55;;;;;;;17.55;9.43;;;;;;;11.54;33.26;99119.81;5037943;28;20531;-77
2022/03/05 07:50:21;;;;;;;15.52;8.98;;;;;;;12.84;31.65;99125.94;5023590;28;20025;-77
2022/03/05 07:52:46;;;;;;;15.95;9.35;;;;;;;13.05;31.93;99116.72;5025731;28;20163;-74
2022/03/05 07:55:11;;;;;;;16.15;9.38;;;;;;;12.69;31.23;99133.44;5029531;28;20057;-71
2022/03/05 07:57:37;;;;;;;18.90;9.55;;;;;;;12.16;32.67;99119.84;5029878;28;20144;-78
2022/03/05 08:00:05;;;;;;;16.45;8.73;;;;;;;11.80;32.82;99118.25;5026219;28;20025;-76
2022/03/05 08:02:31;;;;;;;19.92;9.82;;;;;;;10.96;34.93;99135.53;5023191;28;20029;-74
2022/03/05 08:04:56;;;;;;;18.80;8.82;;;;;;;11.39;34.11;99108.28;5014578;28;20036;-73
2022/03/05 08:07:23;;;;;;;16.33;8.57;;;;;;;11.63;33.70;99121.31;5028744;28;20024;-75
2022/03/05 08:09:48;;;;;;;18.60;9.57;;;;;;;11.55;33.48;99105.25;5027867;28;20029;-77
2022/03/05 08:12:14;;;;;;;17.05;9.13;;;;;;;12.99;32.22;99138.44;5014341;28;20382;-76
2022/03/05 08:14:41;;;;;;;15.20;8.63;;;;;;;12.75;31.85;99118.19;5026293;28;20172;-69
2022/03/05 08:17:06;;;;;;;15.43;8.65;;;;;;;12.88;32.14;99123.63;5027831;28;20025;-72
2022/03/05 08:19:32;;;;;;;15.25;8.48;;;;;;;12.34;32.32;99141.78;5027739;28;20760;-74
2022/03/05 08:21:57;;;;;;;13.57;8.57;;;;;;;12.94;32.20;99142.63;5024021;28;20934;-73
2022/03/05 08:24:22;;;;;;;16.88;8.93;;;;;;;12.11;33.21;99135.91;5026813;28;20025;-73
2022/03/05 08:26:48;;;;;;;15.40;8.32;;;;;;;12.85;31.95;99149.31;5027721;28;20029;-73
2022/03/05 08:29:13;;;;;;;19.60;9.32;;;;;;;11.49;33.39;99133.13;5026232;28;20492;-73
2022/03/05 08:31:38;;;;;;;16.35;8.57;;;;;;;11.12;33.83;99102.72;5030290;28;20130;-73
2022/03/05 08:34:04;;;;;;;16.17;8.43;;;;;;;12.22;32.90;99157.00;5032078;28;20022;-74
2022/03/05 08:36:30;;;;;;;16.48;8.70;;;;;;;11.92;32.86;99130.22;5035469;28;20032;-73
2022/03/05 08:38:56;;;;;;;14.38;8.18;;;;;;;11.67;33.69;99150.72;5054650;28;20025;-77
2022/03/05 08:41:22;;;;;;;16.17;9.02;;;;;;;12.44;33.24;99166.63;5039416;28;20068;-74
2022/03/05 08:43:47;;;;;;;16.20;8.77;;;;;;;11.77;33.05;99127.63;5031112;28;20025;-74
2022/03/05 08:46:13;;;;;;;16.50;9.32;;;;;;;13.34;31.65;99137.16;5033717;28;20033;-74
2022/03/05 08:48:38;;;;;;;17.23;9.02;;;;;;;12.84;31.98;99134.06;5029957;28;20587;-73
2022/03/05 08:51:03;;;;;;;17.98;9.30;;;;;;;12.93;31.95;99146.38;5026662;28;20492;-73
2022/03/05 08:53:29;;;;;;;17.23;8.80;;;;;;;11.63;33.21;99148.44;5028005;28;20039;-74
2022/03/05 08:55:55;;;;;;;20.20;9.30;;;;;;;12.15;32.79;99158.84;5010513;28;20028;-75
2022/03/05 08:58:21;;;;;;;19.25;9.63;;;;;;;11.87;33.00;99148.97;5012384;28;20550;-74
2022/03/05 09:00:47;;;;;;;18.13;8.75;;;;;;;11.49;33.49;99152.09;5027951;28;20037;-72
2022/03/05 09:03:13;;;;;;;18.80;9.55;;;;;;;12.27;33.15;99159.91;5035562;28;20036;-73
2022/03/05 09:05:38;;;;;;;15.48;9.00;;;;;;;13.32;31.90;99143.84;5014720;28;20032;-71
2022/03/05 09:08:04;;;;;;;15.77;9.13;;;;;;;14.11;30.54;99150.03;5026009;28;20036;-72
2022/03/05 09:10:30;;;;;;;20.08;9.88;;;;;;;13.60;30.35;99138.13;5028281;28;20041;-71
2022/03/05 09:12:55;;;;;;;15.57;8.50;;;;;;;14.41;29.49;99121.16;5014865;28;20370;-74
2022/03/05 09:15:21;;;;;;;16.33;8.80;;;;;;;15.03;28.42;99137.63;5033434;28;20031;-72
2022/03/05 09:17:47;;;;;;;16.02;9.02;;;;;;;15.67;28.13;99110.94;5031550;28;20060;-73
2022/03/05 09:20:12;;;;;;;16.13;10.32;;;;;;;15.70;28.33;99129.59;5031976;28;20692;-75
2022/03/05 09:22:38;;;;;;;16.35;8.77;;;;;;;16.83;26.22;99135.38;5035110;28;20033;-73
2022/03/05 09:25:04;;;;;;;17.58;10.02;;;;;;;16.20;27.40;99115.72;5024077;28;20033;-71
2022/03/05 09:27:30;;;;;;;17.75;10.07;;;;;;;17.15;25.64;99122.16;5032870;28;20057;-70
2022/03/05 09:29:56;;;;;;;14.93;9.27;;;;;;;17.01;25.86;99128.97;5033490;28;20063;-71
2022/03/05 09:32:21;;;;;;;14.40;9.05;;;;;;;15.85;26.99;99131.09;5029620;28;20614;-72
2022/03/05 09:34:46;;;;;;;15.38;9.85;;;;;;;16.38;26.13;99123.00;5025817;28;20045;-70
2022/03/05 09:37:12;;;;;;;16.50;9.23;;;;;;;16.35;26.39;99122.66;5024975;28;20103;-70
2022/03/05 09:39:37;;;;;;;13.52;8.70;;;;;;;16.72;25.45;99109.66;5007400;28;20236;-71
2022/03/05 09:42:07;;;;;;;15.82;8.77;;;;;;;16.98;25.11;99127.53;5025358;28;20602;-71
2022/03/05 09:44:32;;;;;;;;;;;;;;;16.04;25.95;99121.81;5009062;28;20059;-69
2022/03/05 09:47:00;;;;;;;12.88;8.57;;;;;;;14.82;27.50;99135.31;5023276;28;19920;-70
2022/03/05 09:49:27;;;;;;;18.05;8.38;;;;;;;15.59;26.59;99129.50;5006948;28;20082;-70
2022/03/05 09:51:53;;;;;;;13.85;8.10;;;;;;;16.28;25.72;99109.09;5032722;28;20056;-69
2022/03/05 09:54:19;;;;;;;14.88;8.07;;;;;;;16.98;24.57;99121.25;5024666;28;20055;-71
2022/03/05 09:56:45;;;;;;;14.10;7.55;;;;;;;15.21;26.32;99127.81;5012813;28;20037;-69
2022/03/05 09:59:10;;;;;;;11.82;7.07;;;;;;;15.25;25.98;99113.53;5029031;28;20112;-70
2022/03/05 10:01:36;;;;;;;13.05;7.63;;;;;;;14.58;27.09;99107.03;5030032;28;20056;-69
2022/03/05 10:04:02;;;;;;;11.73;7.30;;;;;;;14.66;26.71;99109.47;5026950;28;20116;-69
2022/03/05 10:06:28;;;;;;;10.70;6.60;;;;;;;14.92;25.80;99119.31;5022590;28;20049;-69
2022/03/05 10:08:56;;;;;;;13.32;6.80;;;;;;;15.28;25.11;99085.81;5025663;28;20057;-70
2022/03/05 10:11:37;;;;;;;13.13;7.75;;;;;;;14.40;27.17;99121.38;5026196;28;20056;-70
2022/03/05 10:14:17;;;;;;;12.18;7.13;;;;;;;15.74;25.19;99125.34;5009020;28;21513;-70
2022/03/05 10:16:43;;;;;;;11.45;6.97;;;;;;;17.01;24.35;99115.28;5040962;28;20136;-70
2022/03/05 10:19:19;;;;;;;13.13;7.57;;;;;;;16.92;23.64;99113.97;5032874;28;20033;-70
2022/03/05 10:22:03;;;;;;;13.13;6.63;;;;;;;17.35;23.43;99090.91;5022414;28;20041;-71
2022/03/05 10:24:37;;;;;;;14.82;6.70;;;;;;;16.79;22.96;99095.91;5022535;28;20068;-71
2022/03/05 10:27:04;;;;;;;11.35;6.60;;;;;;;16.10;23.20;99131.81;5022941;28;20033;-71
2022/03/05 10:29:36;;;;;;;9.70;6.72;;;;;;;16.75;23.14;99095.53;5029315;28;20108;-70
2022/03/05 10:32:06;;;;;;;11.07;6.95;;;;;;;16.34;23.55;99123.69;5027644;28;20473;-69
2022/03/05 10:34:48;;;;;;;9.95;5.93;;;;;;;16.90;22.43;99116.09;5026051;28;20433;-70
2022/03/05 10:37:13;;;;;;;8.05;5.63;;;;;;;16.96;21.89;99109.72;5021868;28;20025;-70
2022/03/05 10:39:39;;;;;;;8.48;5.70;;;;;;;16.95;21.38;99103.41;5026826;28;20031;-69
2022/03/05 10:42:25;;;;;;;8.40;5.32;;;;;;;14.62;23.31;99106.38;5004441;28;20109;-70
2022/03/05 10:45:04;;;;;;;9.15;5.43;;;;;;;14.77;23.36;99105.19;4994805;28;20132;-69
2022/03/05 10:47:37;;;;;;;8.32;5.30;;;;;;;13.67;24.50;99102.75;5021305;28;20140;-69
2022/03/05 10:50:23;;;;;;;12.00;5.68;;;;;;;11.46;27.02;99113.75;5019330;28;20037;-69
2022/03/05 10:53:07;;;;;;;10.05;5.03;;;;;;;11.34;27.32;99089.94;5023393;28;20056;-71
2022/03/05 10:55:37;;;;;;;10.90;5.43;;;;;;;11.74;26.90;99116.38;5021685;28;20374;-71
2022/03/05 10:58:14;;;;;;;10.30;4.75;;;;;;;11.90;27.18;99113.31;5022604;28;20040;-71
2022/03/05 11:00:41;;;;;;;9.63;5.53;;;;;;;13.26;25.63;99109.34;5004268;28;20041;-71
2022/03/05 11:03:07;;;;;;;8.52;5.20;;;;;;;14.08;25.42;99079.72;5027382;28;20025;-69
2022/03/05 11:05:34;;;;;;;8.73;5.57;;;;;;;15.40;23.66;99083.16;5026953;28;20769;-69
2022/03/05 11:07:59;;;;;;;10.50;5.57;;;;;;;16.10;23.05;99098.22;5028592;28;20055;-70
2022/03/05 11:10:29;;;;;;;8.98;5.28;;;;;;;14.44;23.92;99095.38;5030822;28;20029;-70
2022/03/05 11:12:56;;;;;;;10.25;6.05;;;;;;;12.96;25.79;99098.13;5011800;28;20032;-70
2022/03/05 11:15:23;;;;;;;10.07;5.57;;;;;;;10.78;28.61;99102.72;5029808;28;20412;-71
2022/03/05 11:17:49;;;;;;;11.10;5.57;;;;;;;11.35;28.41;99097.00;5029279;28;20056;-70
2022/03/05 11:20:15;;;;;;;10.13;5.55;;;;;;;12.97;26.32;99072.63;5024034;28;20148;-72
2022/03/05 11:22:41;;;;;;;10.00;5.60;;;;;;;13.58;26.07;99053.22;5023360;28;20022;-71